sensor_id;sensor_type;location;lat;lon;timestamp;pressure;altitude;pressure_sealevel;temperature;humidity
74958;BME280;63741;42.624;26.276;2023-05-29T00:00:02;99324.00;;;18.62;72.85
74958;BME280;63741;42.624;26.276;2023-05-29T00:02:35;99325.72;;;18.55;73.64
74958;BME280;63741;42.624;26.276;2023-05-29T00:05:02;99320.94;;;18.65;72.31
74958;BME280;63741;42.624;26.276;2023-05-29T00:07:30;99324.84;;;18.62;72.30
74958;BME280;63741;42.624;26.276;2023-05-29T00:09:57;99329.03;;;18.57;72.32
74958;BME280;63741;42.624;26.276;2023-05-29T00:12:24;99322.50;;;18.59;72.99
74958;BME280;63741;42.624;26.276;2023-05-29T00:14:51;99330.34;;;18.61;72.06
74958;BME280;63741;42.624;26.276;2023-05-29T00:17:17;99333.84;;;18.69;72.18
74958;BME280;63741;42.624;26.276;2023-05-29T00:19:44;99331.84;;;18.63;71.46
74958;BME280;63741;42.624;26.276;2023-05-29T00:22:11;99339.22;;;18.61;72.85
74958;BME280;63741;42.624;26.276;2023-05-29T00:24:39;99333.50;;;18.64;71.79
74958;BME280;63741;42.624;26.276;2023-05-29T00:27:06;99337.41;;;18.62;72.34
74958;BME280;63741;42.624;26.276;2023-05-29T00:29:33;99342.53;;;18.72;71.88
74958;BME280;63741;42.624;26.276;2023-05-29T00:32:01;99344.91;;;18.66;71.86
74958;BME280;63741;42.624;26.276;2023-05-29T00:34:28;99345.22;;;18.72;72.00
74958;BME280;63741;42.624;26.276;2023-05-29T00:36:55;99355.63;;;18.66;71.83
74958;BME280;63741;42.624;26.276;2023-05-29T00:39:22;99357.06;;;18.77;71.37
74958;BME280;63741;42.624;26.276;2023-05-29T00:41:49;99355.34;;;18.84;71.04
74958;BME280;63741;42.624;26.276;2023-05-29T00:44:21;99357.56;;;18.81;70.98
74958;BME280;63741;42.624;26.276;2023-05-29T00:46:51;99360.53;;;18.86;70.51
74958;BME280;63741;42.624;26.276;2023-05-29T00:49:21;99367.16;;;18.75;71.00
74958;BME280;63741;42.624;26.276;2023-05-29T00:51:51;99364.91;;;18.79;71.74
74958;BME280;63741;42.624;26.276;2023-05-29T00:54:24;99363.47;;;18.68;71.35
74958;BME280;63741;42.624;26.276;2023-05-29T00:56:53;99363.97;;;18.72;71.90
74958;BME280;63741;42.624;26.276;2023-05-29T00:59:21;99357.41;;;18.74;71.27
74958;BME280;63741;42.624;26.276;2023-05-29T01:01:49;99357.06;;;18.77;71.02
74958;BME280;63741;42.624;26.276;2023-05-29T01:04:18;99359.94;;;18.76;71.89
74958;BME280;63741;42.624;26.276;2023-05-29T01:06:47;99359.44;;;18.72;72.34
74958;BME280;63741;42.624;26.276;2023-05-29T01:09:14;99357.78;;;18.71;71.85
74958;BME280;63741;42.624;26.276;2023-05-29T01:12:14;99355.44;;;18.68;71.77
74958;BME280;63741;42.624;26.276;2023-05-29T01:20:44;99359.75;;;18.77;71.29
74958;BME280;63741;42.624;26.276;2023-05-29T01:29:10;99346.69;;;18.74;73.19
74958;BME280;63741;42.624;26.276;2023-05-29T01:31:39;99357.50;;;18.58;73.36
74958;BME280;63741;42.624;26.276;2023-05-29T01:34:06;99359.34;;;18.57;73.68
74958;BME280;63741;42.624;26.276;2023-05-29T01:36:33;99359.81;;;18.61;73.72
74958;BME280;63741;42.624;26.276;2023-05-29T01:39:02;99363.06;;;18.48;74.89
74958;BME280;63741;42.624;26.276;2023-05-29T01:41:31;99352.34;;;18.48;74.35
74958;BME280;63741;42.624;26.276;2023-05-29T01:43:59;99354.19;;;18.48;72.94
74958;BME280;63741;42.624;26.276;2023-05-29T01:46:26;99347.00;;;18.48;73.73
74958;BME280;63741;42.624;26.276;2023-05-29T01:48:54;99352.84;;;18.52;74.50
74958;BME280;63741;42.624;26.276;2023-05-29T01:51:24;99353.78;;;18.67;74.03
74958;BME280;63741;42.624;26.276;2023-05-29T01:53:51;99353.28;;;18.63;73.35
74958;BME280;63741;42.624;26.276;2023-05-29T01:56:19;99356.50;;;18.59;73.94
74958;BME280;63741;42.624;26.276;2023-05-29T01:58:47;99350.34;;;18.50;73.88
74958;BME280;63741;42.624;26.276;2023-05-29T02:01:14;99351.25;;;18.65;72.64
74958;BME280;63741;42.624;26.276;2023-05-29T02:03:41;99353.56;;;18.68;72.49
74958;BME280;63741;42.624;26.276;2023-05-29T02:06:08;99348.31;;;18.52;73.54
74958;BME280;63741;42.624;26.276;2023-05-29T02:08:35;99355.91;;;18.49;73.97
74958;BME280;63741;42.624;26.276;2023-05-29T02:11:02;99350.34;;;18.50;73.41
74958;BME280;63741;42.624;26.276;2023-05-29T02:13:29;99357.72;;;18.48;74.14
74958;BME280;63741;42.624;26.276;2023-05-29T02:15:56;99355.41;;;18.45;73.32
74958;BME280;63741;42.624;26.276;2023-05-29T02:18:23;99354.16;;;18.56;73.08
74958;BME280;63741;42.624;26.276;2023-05-29T02:20:50;99361.81;;;18.67;72.78
74958;BME280;63741;42.624;26.276;2023-05-29T02:23:21;99361.31;;;18.63;72.45
74958;BME280;63741;42.624;26.276;2023-05-29T02:25:50;99371.09;;;18.48;73.27
74958;BME280;63741;42.624;26.276;2023-05-29T02:28:17;99368.28;;;18.50;73.10
74958;BME280;63741;42.624;26.276;2023-05-29T02:30:44;99367.25;;;18.51;72.89
74958;BME280;63741;42.624;26.276;2023-05-29T02:33:10;99363.84;;;18.57;72.95
74958;BME280;63741;42.624;26.276;2023-05-29T02:35:37;99381.66;;;18.50;73.32
74958;BME280;63741;42.624;26.276;2023-05-29T02:38:04;99373.75;;;18.56;72.69
74958;BME280;63741;42.624;26.276;2023-05-29T02:40:31;99378.00;;;18.42;73.56
74958;BME280;63741;42.624;26.276;2023-05-29T02:42:58;99368.28;;;18.50;73.29
74958;BME280;63741;42.624;26.276;2023-05-29T02:45:25;99364.13;;;18.70;72.23
74958;BME280;63741;42.624;26.276;2023-05-29T02:47:53;99363.81;;;18.65;72.09
74958;BME280;63741;42.624;26.276;2023-05-29T02:50:20;99362.78;;;18.74;72.32
74958;BME280;63741;42.624;26.276;2023-05-29T02:52:47;99372.84;;;18.72;72.34
74958;BME280;63741;42.624;26.276;2023-05-29T02:55:14;99368.34;;;18.64;72.73
74958;BME280;63741;42.624;26.276;2023-05-29T02:57:42;99369.41;;;18.55;73.37
74958;BME280;63741;42.624;26.276;2023-05-29T03:00:09;99380.34;;;18.46;73.51
74958;BME280;63741;42.624;26.276;2023-05-29T03:02:37;99382.75;;;18.32;74.30
74958;BME280;63741;42.624;26.276;2023-05-29T03:05:05;99377.69;;;18.37;73.84
74958;BME280;63741;42.624;26.276;2023-05-29T03:07:33;99388.81;;;18.57;72.98
74958;BME280;63741;42.624;26.276;2023-05-29T03:10:00;99395.69;;;18.52;73.79
74958;BME280;63741;42.624;26.276;2023-05-29T03:12:28;99399.91;;;18.46;74.21
74958;BME280;63741;42.624;26.276;2023-05-29T03:14:56;99400.09;;;18.44;74.13
74958;BME280;63741;42.624;26.276;2023-05-29T03:17:24;99410.09;;;18.51;73.56
74958;BME280;63741;42.624;26.276;2023-05-29T03:19:52;99408.06;;;18.53;74.29
74958;BME280;63741;42.624;26.276;2023-05-29T03:22:20;99408.75;;;18.55;73.52
74958;BME280;63741;42.624;26.276;2023-05-29T03:24:47;99408.44;;;18.50;74.02
74958;BME280;63741;42.624;26.276;2023-05-29T03:27:14;99416.47;;;18.50;74.83
74958;BME280;63741;42.624;26.276;2023-05-29T03:29:42;99414.28;;;18.53;74.38
74958;BME280;63741;42.624;26.276;2023-05-29T03:32:09;99424.28;;;18.59;73.86
74958;BME280;63741;42.624;26.276;2023-05-29T03:34:36;99431.16;;;18.62;73.94
74958;BME280;63741;42.624;26.276;2023-05-29T03:37:05;99429.16;;;18.56;73.97
74958;BME280;63741;42.624;26.276;2023-05-29T03:39:32;99433.84;;;18.62;73.73
74958;BME280;63741;42.624;26.276;2023-05-29T03:41:59;99436.38;;;18.55;74.56
74958;BME280;63741;42.624;26.276;2023-05-29T03:44:27;99436.34;;;18.63;74.15
74958;BME280;63741;42.624;26.276;2023-05-29T03:46:54;99437.34;;;18.62;74.48
74958;BME280;63741;42.624;26.276;2023-05-29T03:49:22;99435.19;;;18.58;74.63
74958;BME280;63741;42.624;26.276;2023-05-29T03:51:50;99438.66;;;18.66;73.37
74958;BME280;63741;42.624;26.276;2023-05-29T03:54:20;99441.50;;;18.65;73.60
74958;BME280;63741;42.624;26.276;2023-05-29T03:56:47;99428.28;;;18.72;73.79
74958;BME280;63741;42.624;26.276;2023-05-29T03:59:16;99432.41;;;18.82;73.73
74958;BME280;63741;42.624;26.276;2023-05-29T04:01:46;99432.69;;;18.87;73.45
74958;BME280;63741;42.624;26.276;2023-05-29T04:04:13;99423.63;;;18.88;73.97
74958;BME280;63741;42.624;26.276;2023-05-29T04:06:40;99425.47;;;18.88;74.31
74958;BME280;63741;42.624;26.276;2023-05-29T04:09:08;99433.81;;;18.70;76.20
74958;BME280;63741;42.624;26.276;2023-05-29T04:11:35;99432.75;;;18.79;76.70
74958;BME280;63741;42.624;26.276;2023-05-29T04:14:02;99432.41;;;18.82;77.64
74958;BME280;63741;42.624;26.276;2023-05-29T04:16:29;99432.41;;;18.82;77.02
74958;BME280;63741;42.624;26.276;2023-05-29T04:18:56;99424.13;;;18.92;77.80
74958;BME280;63741;42.624;26.276;2023-05-29T04:21:27;99430.06;;;18.79;78.20
74958;BME280;63741;42.624;26.276;2023-05-29T04:23:54;99430.72;;;18.81;77.63
74958;BME280;63741;42.624;26.276;2023-05-29T04:26:22;99426.28;;;18.97;77.06
74958;BME280;63741;42.624;26.276;2023-05-29T04:28:54;99426.88;;;19.07;77.31
74958;BME280;63741;42.624;26.276;2023-05-29T04:31:25;99418.47;;;19.10;75.91
74958;BME280;63741;42.624;26.276;2023-05-29T04:33:54;99416.06;;;19.15;76.05
74958;BME280;63741;42.624;26.276;2023-05-29T04:36:23;99413.94;;;19.10;76.26
74958;BME280;63741;42.624;26.276;2023-05-29T04:39:03;99412.50;;;19.23;75.03
74958;BME280;63741;42.624;26.276;2023-05-29T04:41:31;99413.41;;;19.38;75.04
74958;BME280;63741;42.624;26.276;2023-05-29T04:43:59;99411.00;;;19.43;75.13
74958;BME280;63741;42.624;26.276;2023-05-29T04:46:34;99420.91;;;19.42;74.02
74958;BME280;63741;42.624;26.276;2023-05-29T04:49:03;99419.34;;;19.48;73.41
74958;BME280;63741;42.624;26.276;2023-05-29T04:51:31;99423.69;;;19.49;73.30
74958;BME280;63741;42.624;26.276;2023-05-29T04:53:58;99422.31;;;19.53;72.84
74958;BME280;63741;42.624;26.276;2023-05-29T04:56:25;99424.41;;;19.66;72.54
74958;BME280;63741;42.624;26.276;2023-05-29T04:58:53;99428.50;;;19.91;71.57
74958;BME280;63741;42.624;26.276;2023-05-29T05:01:21;99427.69;;;20.06;71.71
74958;BME280;63741;42.624;26.276;2023-05-29T05:03:48;99427.94;;;20.11;72.49
74958;BME280;63741;42.624;26.276;2023-05-29T05:06:15;99424.53;;;20.32;70.69
74958;BME280;63741;42.624;26.276;2023-05-29T05:08:43;99431.19;;;20.36;71.03
74958;BME280;63741;42.624;26.276;2023-05-29T05:11:11;99433.13;;;20.42;68.99
74958;BME280;63741;42.624;26.276;2023-05-29T05:13:39;99434.97;;;20.56;68.03
74958;BME280;63741;42.624;26.276;2023-05-29T05:16:06;99427.28;;;20.68;67.12
74958;BME280;63741;42.624;26.276;2023-05-29T05:18:34;99428.41;;;20.59;67.80
74958;BME280;63741;42.624;26.276;2023-05-29T05:21:03;99424.88;;;20.58;67.98
74958;BME280;63741;42.624;26.276;2023-05-29T05:23:32;99425.41;;;20.68;68.60
74958;BME280;63741;42.624;26.276;2023-05-29T05:26:15;99419.72;;;20.78;68.12
74958;BME280;63741;42.624;26.276;2023-05-29T05:28:42;99424.84;;;20.73;69.18
74958;BME280;63741;42.624;26.276;2023-05-29T05:31:11;99423.97;;;20.87;68.36
74958;BME280;63741;42.624;26.276;2023-05-29T05:33:38;99423.44;;;20.77;68.75
74958;BME280;63741;42.624;26.276;2023-05-29T05:36:05;99425.47;;;20.75;69.07
74958;BME280;63741;42.624;26.276;2023-05-29T05:38:33;99428.72;;;20.70;68.67
74958;BME280;63741;42.624;26.276;2023-05-29T05:41:00;99427.94;;;20.55;69.06
74958;BME280;63741;42.624;26.276;2023-05-29T05:43:30;99433.94;;;20.42;68.93
74958;BME280;63741;42.624;26.276;2023-05-29T05:46:13;99437.94;;;20.47;69.45
74958;BME280;63741;42.624;26.276;2023-05-29T05:48:41;99441.13;;;20.50;69.67
74958;BME280;63741;42.624;26.276;2023-05-29T05:51:08;99434.03;;;20.64;69.45
74958;BME280;63741;42.624;26.276;2023-05-29T05:53:36;99435.16;;;20.91;68.79
74958;BME280;63741;42.624;26.276;2023-05-29T05:56:03;99423.91;;;21.24;66.83
74958;BME280;63741;42.624;26.276;2023-05-29T05:58:31;99430.38;;;21.08;67.20
74958;BME280;63741;42.624;26.276;2023-05-29T06:00:58;99432.63;;;21.04;67.28
74958;BME280;63741;42.624;26.276;2023-05-29T06:03:26;99437.53;;;21.01;66.56
74958;BME280;63741;42.624;26.276;2023-05-29T06:06:01;99431.94;;;21.38;66.03
74958;BME280;63741;42.624;26.276;2023-05-29T06:08:29;99426.03;;;21.50;67.90
74958;BME280;63741;42.624;26.276;2023-05-29T06:10:57;99430.38;;;21.51;66.38
74958;BME280;63741;42.624;26.276;2023-05-29T06:13:24;99426.81;;;21.72;66.16
74958;BME280;63741;42.624;26.276;2023-05-29T06:15:58;99427.84;;;21.99;64.40
74958;BME280;63741;42.624;26.276;2023-05-29T06:18:25;99424.50;;;21.96;65.59
74958;BME280;63741;42.624;26.276;2023-05-29T06:20:54;99427.38;;;21.95;64.20
74958;BME280;63741;42.624;26.276;2023-05-29T06:23:21;99429.03;;;21.89;64.45
74958;BME280;63741;42.624;26.276;2023-05-29T06:25:49;99420.88;;;22.11;63.98
74958;BME280;63741;42.624;26.276;2023-05-29T06:28:16;99428.63;;;22.27;63.79
74958;BME280;63741;42.624;26.276;2023-05-29T06:30:43;99424.94;;;22.28;63.20
74958;BME280;63741;42.624;26.276;2023-05-29T06:33:12;99434.16;;;22.54;63.52
74958;BME280;63741;42.624;26.276;2023-05-29T06:35:40;99429.63;;;22.67;62.89
74958;BME280;63741;42.624;26.276;2023-05-29T06:38:08;99423.53;;;22.39;64.31
74958;BME280;63741;42.624;26.276;2023-05-29T06:40:36;99424.13;;;22.41;62.85
74958;BME280;63741;42.624;26.276;2023-05-29T06:43:03;99417.72;;;22.07;64.03
74958;BME280;63741;42.624;26.276;2023-05-29T06:45:45;99425.75;;;22.29;63.74
74958;BME280;63741;42.624;26.276;2023-05-29T06:48:12;99418.88;;;22.74;62.66
74958;BME280;63741;42.624;26.276;2023-05-29T06:50:40;99416.06;;;23.02;62.17
74958;BME280;63741;42.624;26.276;2023-05-29T06:53:25;99418.38;;;23.12;60.83
74958;BME280;63741;42.624;26.276;2023-05-29T06:55:55;99424.00;;;23.37;62.03
74958;BME280;63741;42.624;26.276;2023-05-29T06:58:22;99428.78;;;23.48;58.58
74958;BME280;63741;42.624;26.276;2023-05-29T07:00:49;99425.25;;;23.28;60.81
74958;BME280;63741;42.624;26.276;2023-05-29T07:03:26;99418.59;;;23.30;60.62
74958;BME280;63741;42.624;26.276;2023-05-29T07:05:53;99422.75;;;23.46;59.79
74958;BME280;63741;42.624;26.276;2023-05-29T07:08:20;99422.59;;;23.67;59.25
74958;BME280;63741;42.624;26.276;2023-05-29T07:10:49;99433.78;;;23.98;58.97
74958;BME280;63741;42.624;26.276;2023-05-29T07:13:19;99418.00;;;23.81;58.80
74958;BME280;63741;42.624;26.276;2023-05-29T07:15:48;99431.00;;;24.11;60.30
74958;BME280;63741;42.624;26.276;2023-05-29T07:18:17;99431.91;;;23.85;60.19
74958;BME280;63741;42.624;26.276;2023-05-29T07:20:44;99439.41;;;23.76;59.94
74958;BME280;63741;42.624;26.276;2023-05-29T07:23:14;99430.66;;;23.74;59.03
74958;BME280;63741;42.624;26.276;2023-05-29T07:25:41;99433.78;;;23.44;59.54
74958;BME280;63741;42.624;26.276;2023-05-29T07:28:09;99435.41;;;23.26;60.46
74958;BME280;63741;42.624;26.276;2023-05-29T07:30:48;99432.50;;;23.14;61.18
74958;BME280;63741;42.624;26.276;2023-05-29T07:33:15;99427.09;;;23.14;60.37
74958;BME280;63741;42.624;26.276;2023-05-29T07:35:43;99427.25;;;22.92;60.50
74958;BME280;63741;42.624;26.276;2023-05-29T07:38:10;99430.41;;;23.16;60.49
74958;BME280;63741;42.624;26.276;2023-05-29T07:40:38;99421.06;;;23.12;60.95
74958;BME280;63741;42.624;26.276;2023-05-29T07:43:08;99431.00;;;22.98;59.75
74958;BME280;63741;42.624;26.276;2023-05-29T07:45:49;99424.41;;;23.20;60.82
74958;BME280;63741;42.624;26.276;2023-05-29T07:48:16;99425.69;;;23.64;58.91
74958;BME280;63741;42.624;26.276;2023-05-29T07:50:43;99423.75;;;24.05;58.05
74958;BME280;63741;42.624;26.276;2023-05-29T07:53:10;99429.72;;;24.40;57.63
74958;BME280;63741;42.624;26.276;2023-05-29T07:55:38;99422.22;;;24.49;57.81
74958;BME280;63741;42.624;26.276;2023-05-29T07:58:05;99435.41;;;24.05;57.29
74958;BME280;63741;42.624;26.276;2023-05-29T08:00:33;99435.22;;;23.47;58.83
74958;BME280;63741;42.624;26.276;2023-05-29T08:03:02;99432.50;;;23.27;58.42
74958;BME280;63741;42.624;26.276;2023-05-29T08:05:29;99427.31;;;23.26;58.00
74958;BME280;63741;42.624;26.276;2023-05-29T08:08:00;99436.03;;;23.34;58.75
74958;BME280;63741;42.624;26.276;2023-05-29T08:10:27;99431.09;;;23.44;58.75
74958;BME280;63741;42.624;26.276;2023-05-29T08:12:54;99433.97;;;23.50;60.71
74958;BME280;63741;42.624;26.276;2023-05-29T08:15:21;99435.03;;;23.49;59.84
74958;BME280;63741;42.624;26.276;2023-05-29T08:20:18;99433.97;;;23.30;59.93
74958;BME280;63741;42.624;26.276;2023-05-29T08:22:45;99433.13;;;23.29;59.48
74958;BME280;63741;42.624;26.276;2023-05-29T08:27:48;99430.84;;;23.13;60.32
74958;BME280;63741;42.624;26.276;2023-05-29T08:30:15;99433.50;;;23.06;59.91
74958;BME280;63741;42.624;26.276;2023-05-29T08:32:42;99426.38;;;22.85;60.66
74958;BME280;63741;42.624;26.276;2023-05-29T08:35:09;99431.53;;;22.80;59.90
74958;BME280;63741;42.624;26.276;2023-05-29T08:37:36;99434.25;;;22.80;61.84
74958;BME280;63741;42.624;26.276;2023-05-29T08:40:04;99430.56;;;22.94;59.85
74958;BME280;63741;42.624;26.276;2023-05-29T08:42:40;99427.91;;;23.08;59.00
74958;BME280;63741;42.624;26.276;2023-05-29T08:45:13;99433.09;;;22.96;60.52
74958;BME280;63741;42.624;26.276;2023-05-29T08:47:41;99423.34;;;23.15;60.62
74958;BME280;63741;42.624;26.276;2023-05-29T08:50:13;99429.63;;;23.35;59.18
74958;BME280;63741;42.624;26.276;2023-05-29T08:52:42;99436.25;;;23.53;57.26
74958;BME280;63741;42.624;26.276;2023-05-29T08:55:09;99436.44;;;24.04;55.72
74958;BME280;63741;42.624;26.276;2023-05-29T08:57:37;99432.94;;;23.90;56.86
74958;BME280;63741;42.624;26.276;2023-05-29T09:00:06;99431.00;;;24.17;55.66
74958;BME280;63741;42.624;26.276;2023-05-29T09:02:42;99413.75;;;24.25;56.47
74958;BME280;63741;42.624;26.276;2023-05-29T09:05:12;99430.63;;;24.01;55.32
74958;BME280;63741;42.624;26.276;2023-05-29T09:07:40;99423.00;;;23.71;56.31
74958;BME280;63741;42.624;26.276;2023-05-29T09:10:10;99420.91;;;23.53;58.98
74958;BME280;63741;42.624;26.276;2023-05-29T09:12:37;99418.00;;;23.68;57.70
74958;BME280;63741;42.624;26.276;2023-05-29T09:15:16;99420.88;;;23.46;59.68
74958;BME280;63741;42.624;26.276;2023-05-29T09:17:49;99411.34;;;23.51;59.20
74958;BME280;63741;42.624;26.276;2023-05-29T09:20:18;99425.66;;;23.51;58.35
74958;BME280;63741;42.624;26.276;2023-05-29T09:22:57;99422.53;;;23.21;59.59
74958;BME280;63741;42.624;26.276;2023-05-29T09:25:29;99422.50;;;23.08;59.76
74958;BME280;63741;42.624;26.276;2023-05-29T09:28:04;99408.22;;;23.27;58.98
74958;BME280;63741;42.624;26.276;2023-05-29T09:30:43;99415.50;;;23.33;59.69
74958;BME280;63741;42.624;26.276;2023-05-29T09:33:12;99410.72;;;23.55;58.24
74958;BME280;63741;42.624;26.276;2023-05-29T09:35:41;99410.72;;;23.55;58.53
74958;BME280;63741;42.624;26.276;2023-05-29T09:38:10;99424.25;;;23.68;58.70
74958;BME280;63741;42.624;26.276;2023-05-29T09:40:50;99418.63;;;23.70;58.21
74958;BME280;63741;42.624;26.276;2023-05-29T09:43:18;99416.53;;;23.52;58.57
74958;BME280;63741;42.624;26.276;2023-05-29T09:45:47;99414.34;;;24.27;57.89
74958;BME280;63741;42.624;26.276;2023-05-29T09:48:17;99407.28;;;24.39;55.61
74958;BME280;63741;42.624;26.276;2023-05-29T09:50:45;99405.69;;;24.12;56.34
74958;BME280;63741;42.624;26.276;2023-05-29T09:53:22;99410.31;;;23.78;57.70
74958;BME280;63741;42.624;26.276;2023-05-29T09:55:53;99399.25;;;24.00;58.68
74958;BME280;63741;42.624;26.276;2023-05-29T09:58:22;99399.00;;;24.21;57.80
74958;BME280;63741;42.624;26.276;2023-05-29T10:00:50;99406.53;;;23.92;57.11
74958;BME280;63741;42.624;26.276;2023-05-29T10:03:20;99414.88;;;23.78;58.14
74958;BME280;63741;42.624;26.276;2023-05-29T10:05:52;99389.53;;;23.32;58.93
74958;BME280;63741;42.624;26.276;2023-05-29T10:08:25;99404.69;;;23.33;60.55
74958;BME280;63741;42.624;26.276;2023-05-29T10:10:58;99410.63;;;22.89;61.90
74958;BME280;63741;42.624;26.276;2023-05-29T10:13:28;99365.75;;;22.68;62.47
74958;BME280;63741;42.624;26.276;2023-05-29T10:15:58;99422.63;;;22.73;63.69
74958;BME280;63741;42.624;26.276;2023-05-29T10:18:29;99433.53;;;22.52;63.22
74958;BME280;63741;42.624;26.276;2023-05-29T10:21:00;99434.97;;;22.48;60.62
74958;BME280;63741;42.624;26.276;2023-05-29T10:23:29;99438.81;;;22.73;63.62
74958;BME280;63741;42.624;26.276;2023-05-29T10:26:15;99445.13;;;23.00;65.75
74958;BME280;63741;42.624;26.276;2023-05-29T10:28:48;99444.56;;;23.44;65.30
74958;BME280;63741;42.624;26.276;2023-05-29T10:31:24;99438.09;;;24.05;63.82
74958;BME280;63741;42.624;26.276;2023-05-29T10:34:07;99430.13;;;24.43;63.32
74958;BME280;63741;42.624;26.276;2023-05-29T10:36:44;99423.34;;;24.73;62.07
74958;BME280;63741;42.624;26.276;2023-05-29T10:39:16;99419.88;;;24.59;59.50
74958;BME280;63741;42.624;26.276;2023-05-29T10:41:43;99417.63;;;24.49;59.99
74958;BME280;63741;42.624;26.276;2023-05-29T10:49:26;99431.19;;;24.29;56.46
74958;BME280;63741;42.624;26.276;2023-05-29T10:51:53;99424.00;;;23.83;57.79
74958;BME280;63741;42.624;26.276;2023-05-29T10:54:24;99422.13;;;23.57;58.64
74958;BME280;63741;42.624;26.276;2023-05-29T10:56:55;99422.59;;;23.67;57.93
74958;BME280;63741;42.624;26.276;2023-05-29T10:59:23;99429.03;;;23.80;59.07
74958;BME280;63741;42.624;26.276;2023-05-29T11:01:55;99416.75;;;23.77;58.14
74958;BME280;63741;42.624;26.276;2023-05-29T11:06:53;99415.50;;;23.60;57.60
74958;BME280;63741;42.624;26.276;2023-05-29T11:09:30;99422.78;;;23.66;57.68
74958;BME280;63741;42.624;26.276;2023-05-29T11:15:08;99431.94;;;23.72;58.60
74958;BME280;63741;42.624;26.276;2023-05-29T11:20:08;99420.56;;;24.41;56.47
74958;BME280;63741;42.624;26.276;2023-05-29T11:25:13;99421.78;;;24.52;56.71
74958;BME280;63741;42.624;26.276;2023-05-29T11:27:44;99416.63;;;24.37;54.67
74958;BME280;63741;42.624;26.276;2023-05-29T11:30:11;99419.13;;;24.32;57.93
74958;BME280;63741;42.624;26.276;2023-05-29T11:32:39;99413.44;;;24.53;57.08
74958;BME280;63741;42.624;26.276;2023-05-29T11:35:08;99407.34;;;24.64;57.11
74958;BME280;63741;42.624;26.276;2023-05-29T11:37:37;99412.38;;;24.61;56.29
74958;BME280;63741;42.624;26.276;2023-05-29T11:40:05;99404.34;;;24.41;56.50
74958;BME280;63741;42.624;26.276;2023-05-29T11:42:32;99416.81;;;24.42;55.72
74958;BME280;63741;42.624;26.276;2023-05-29T11:47:56;99421.69;;;24.00;52.35
74958;BME280;63741;42.624;26.276;2023-05-29T11:50:25;99414.81;;;24.11;52.96
74958;BME280;63741;42.624;26.276;2023-05-29T11:52:52;99427.31;;;23.99;53.85
74958;BME280;63741;42.624;26.276;2023-05-29T11:55:20;99432.28;;;24.08;55.13
74958;BME280;63741;42.624;26.276;2023-05-29T11:57:52;99435.66;;;23.90;55.26
74958;BME280;63741;42.624;26.276;2023-05-29T12:00:22;99441.44;;;24.01;54.63
74958;BME280;63741;42.624;26.276;2023-05-29T12:02:48;99443.72;;;23.97;54.25
74958;BME280;63741;42.624;26.276;2023-05-29T12:05:18;99442.50;;;23.86;54.23
74958;BME280;63741;42.624;26.276;2023-05-29T12:07:53;99439.78;;;23.93;53.35
74958;BME280;63741;42.624;26.276;2023-05-29T12:10:23;99436.22;;;24.12;53.31
74958;BME280;63741;42.624;26.276;2023-05-29T12:12:55;99442.66;;;24.18;53.31
74958;BME280;63741;42.624;26.276;2023-05-29T12:15:23;99443.09;;;24.08;53.88
74958;BME280;63741;42.624;26.276;2023-05-29T12:17:51;99438.44;;;24.49;53.62
74958;BME280;63741;42.624;26.276;2023-05-29T12:20:22;99440.75;;;24.38;53.06
74958;BME280;63741;42.624;26.276;2023-05-29T12:22:49;99438.66;;;24.40;53.16
74958;BME280;63741;42.624;26.276;2023-05-29T12:25:19;99448.97;;;24.70;52.44
74958;BME280;63741;42.624;26.276;2023-05-29T12:27:47;99448.72;;;24.71;53.06
74958;BME280;63741;42.624;26.276;2023-05-29T12:30:21;99441.72;;;25.34;51.77
74958;BME280;63741;42.624;26.276;2023-05-29T12:33:00;99450.03;;;25.64;49.78
74958;BME280;63741;42.624;26.276;2023-05-29T12:35:29;99442.56;;;25.34;49.05
74958;BME280;63741;42.624;26.276;2023-05-29T12:38:01;99449.13;;;25.20;49.79
74958;BME280;63741;42.624;26.276;2023-05-29T12:40:31;99442.00;;;24.87;50.19
74958;BME280;63741;42.624;26.276;2023-05-29T12:43:03;99436.63;;;24.81;50.20
74958;BME280;63741;42.624;26.276;2023-05-29T12:45:33;99445.06;;;24.53;51.88
74958;BME280;63741;42.624;26.276;2023-05-29T12:50:29;99440.66;;;24.65;50.72
74958;BME280;63741;42.624;26.276;2023-05-29T12:55:33;99433.69;;;24.82;50.46
74958;BME280;63741;42.624;26.276;2023-05-29T12:58:04;99437.50;;;25.06;51.15
74958;BME280;63741;42.624;26.276;2023-05-29T13:00:35;99443.47;;;24.83;51.18
74958;BME280;63741;42.624;26.276;2023-05-29T13:03:02;99438.56;;;24.67;51.80
74958;BME280;63741;42.624;26.276;2023-05-29T13:05:30;99440.78;;;24.18;51.12
74958;BME280;63741;42.624;26.276;2023-05-29T13:07:57;99440.78;;;24.18;53.10
74958;BME280;63741;42.624;26.276;2023-05-29T13:10:25;99438.09;;;24.12;53.28
74958;BME280;63741;42.624;26.276;2023-05-29T13:12:53;99434.69;;;24.36;52.97
74958;BME280;63741;42.624;26.276;2023-05-29T13:15:25;99423.31;;;24.21;51.41
74958;BME280;63741;42.624;26.276;2023-05-29T13:17:55;99433.88;;;24.36;53.34
74958;BME280;63741;42.624;26.276;2023-05-29T13:20:22;99433.03;;;24.35;53.05
74958;BME280;63741;42.624;26.276;2023-05-29T13:22:49;99430.41;;;24.15;52.62
74958;BME280;63741;42.624;26.276;2023-05-29T13:25:17;99429.56;;;24.21;52.67
74958;BME280;63741;42.624;26.276;2023-05-29T13:27:48;99427.31;;;23.99;52.62
74958;BME280;63741;42.624;26.276;2023-05-29T13:30:16;99404.44;;;24.08;53.80
74958;BME280;63741;42.624;26.276;2023-05-29T13:32:44;99406.22;;;24.40;53.73
74958;BME280;63741;42.624;26.276;2023-05-29T13:35:11;99407.91;;;24.80;53.38
74958;BME280;63741;42.624;26.276;2023-05-29T13:37:39;99407.19;;;24.98;52.38
74958;BME280;63741;42.624;26.276;2023-05-29T13:40:07;99393.31;;;24.81;51.07